createdAt,value
2022-08-28T00:00:28.981Z,12.32
2022-08-28T00:02:56.818Z,12.88
2022-08-28T00:05:26.194Z,13.55
2022-08-28T00:07:52.987Z,13.88
2022-08-28T00:10:22.328Z,14.00
2022-08-28T00:12:51.332Z,14.05
2022-08-28T00:15:22.067Z,13.60
2022-08-28T00:17:49.139Z,13.32
2022-08-28T00:20:19.941Z,13.75
2022-08-28T00:22:48.567Z,13.00
2022-08-28T00:25:18.363Z,13.93
2022-08-28T00:27:55.164Z,14.05
2022-08-28T00:30:24.218Z,13.40
2022-08-28T00:32:53.393Z,12.57
2022-08-28T00:35:21.044Z,12.85
2022-08-28T00:37:48.173Z,12.88
2022-08-28T00:40:20.007Z,12.98
2022-08-28T00:42:56.790Z,11.90
2022-08-28T00:45:24.969Z,13.27
2022-08-28T00:47:51.787Z,15.65
2022-08-28T00:50:22.014Z,12.48
2022-08-28T00:52:53.023Z,12.05
2022-08-28T00:55:23.582Z,12.20
2022-08-28T00:57:53.901Z,12.73
2022-08-28T01:00:25.824Z,13.00
2022-08-28T01:02:53.291Z,11.80
2022-08-28T01:05:20.768Z,11.38
2022-08-28T01:07:49.732Z,11.55
2022-08-28T01:10:20.243Z,12.25
2022-08-28T01:12:49.981Z,11.25
2022-08-28T01:15:21.368Z,12.00
2022-08-28T01:17:52.482Z,11.40
2022-08-28T01:20:27.209Z,11.90
2022-08-28T01:23:13.934Z,12.02
2022-08-28T01:25:42.733Z,12.15
2022-08-28T01:28:12.772Z,11.52
2022-08-28T01:30:42.399Z,11.85
2022-08-28T01:33:09.346Z,11.90
2022-08-28T01:35:42.806Z,11.20
2022-08-28T01:38:09.684Z,12.10
2022-08-28T01:40:42.936Z,12.00
2022-08-28T01:43:14.758Z,12.45
2022-08-28T01:45:44.463Z,12.23
2022-08-28T01:48:13.261Z,11.82
2022-08-28T01:50:40.817Z,12.23
2022-08-28T01:53:08.074Z,11.27
2022-08-28T01:55:39.780Z,10.90
2022-08-28T01:58:08.677Z,11.23
2022-08-28T02:00:36.477Z,10.77
2022-08-28T02:03:03.865Z,12.32
2022-08-28T02:05:32.694Z,11.68
2022-08-28T02:08:01.281Z,12.15
2022-08-28T02:10:31.624Z,11.85
2022-08-28T02:12:59.467Z,12.48
2022-08-28T02:15:28.914Z,11.77
2022-08-28T02:17:56.127Z,11.65
2022-08-28T02:20:24.214Z,12.27
2022-08-28T02:22:51.878Z,12.68
2022-08-28T02:25:19.286Z,12.23
2022-08-28T02:27:46.226Z,12.25
2022-08-28T02:30:15.209Z,12.52
2022-08-28T02:32:42.048Z,12.40
2022-08-28T02:35:12.955Z,12.40
2022-08-28T02:37:40.162Z,12.13
2022-08-28T02:40:07.799Z,12.45
2022-08-28T02:42:34.780Z,12.02
2022-08-28T02:45:01.692Z,11.43
2022-08-28T02:47:29.075Z,12.20
2022-08-28T02:49:55.899Z,12.15
2022-08-28T02:52:24.591Z,12.10
2022-08-28T02:54:51.548Z,11.82
2022-08-28T02:57:18.304Z,12.68
2022-08-28T02:59:45.576Z,12.32
2022-08-28T03:02:12.667Z,11.25
2022-08-28T03:04:41.447Z,11.13
2022-08-28T03:07:10.042Z,12.63
2022-08-28T03:09:38.311Z,10.88
2022-08-28T03:12:05.317Z,11.05
2022-08-28T03:14:32.130Z,10.35
2022-08-28T03:16:59.014Z,10.70
2022-08-28T03:19:25.903Z,10.57
2022-08-28T03:21:54.517Z,9.68
2022-08-28T03:24:21.393Z,8.27
2022-08-28T03:26:48.294Z,9.02
2022-08-28T03:29:15.025Z,8.20
2022-08-28T03:31:41.919Z,8.48
2022-08-28T03:34:09.605Z,9.32
2022-08-28T03:36:36.414Z,9.90
2022-08-28T03:39:05.990Z,8.70
2022-08-28T03:41:34.112Z,9.07
2022-08-28T03:44:01.800Z,9.65
2022-08-28T03:46:32.773Z,8.70
2022-08-28T03:49:01.425Z,8.63
2022-08-28T03:51:31.131Z,7.95
2022-08-28T03:53:59.591Z,8.43
2022-08-28T03:56:29.109Z,8.63
2022-08-28T03:58:59.060Z,7.82
2022-08-28T04:01:25.999Z,8.68
2022-08-28T04:03:52.949Z,6.72
2022-08-28T04:06:20.018Z,7.53
2022-08-28T04:08:47.998Z,7.10
2022-08-28T04:11:15.258Z,6.80
2022-08-28T04:13:42.210Z,6.18
2022-08-28T04:16:11.853Z,6.22
2022-08-28T04:18:41.682Z,6.43
2022-08-28T04:21:15.452Z,6.20
2022-08-28T04:23:44.047Z,6.45
2022-08-28T04:26:14.764Z,6.57
2022-08-28T04:28:42.181Z,9.40
2022-08-28T04:31:09.099Z,7.20
2022-08-28T04:33:37.055Z,7.25
2022-08-28T04:36:06.672Z,8.05
2022-08-28T04:38:33.675Z,8.25
2022-08-28T04:41:04.815Z,8.18
2022-08-28T04:43:31.798Z,9.38
2022-08-28T04:45:58.772Z,11.38
2022-08-28T04:48:25.989Z,9.75
2022-08-28T04:50:52.772Z,10.38
2022-08-28T04:53:20.257Z,9.57
2022-08-28T04:55:54.999Z,8.23
2022-08-28T04:58:24.139Z,8.20
2022-08-28T05:00:53.884Z,7.00
2022-08-28T05:03:21.201Z,6.95
2022-08-28T05:05:53.576Z,7.07
2022-08-28T05:08:23.380Z,7.00
2022-08-28T05:10:50.995Z,7.07
2022-08-28T05:13:19.249Z,7.20
2022-08-28T05:15:48.968Z,7.78
2022-08-28T05:18:18.487Z,6.97
2022-08-28T05:20:48.275Z,6.85
2022-08-28T05:23:16.662Z,6.65
2022-08-28T05:25:46.829Z,6.55
2022-08-28T05:28:22.455Z,6.35
2022-08-28T05:30:49.311Z,7.43
2022-08-28T05:33:16.216Z,7.43
2022-08-28T05:35:45.236Z,6.60
2022-08-28T05:38:13.569Z,6.90
2022-08-28T05:40:49.486Z,6.22
2022-08-28T05:43:18.095Z,5.38
2022-08-28T05:45:45.005Z,5.45
2022-08-28T05:48:12.116Z,6.25
2022-08-28T05:50:39.422Z,7.13
2022-08-28T05:53:14.156Z,6.80
2022-08-28T05:55:41.085Z,6.95
2022-08-28T05:58:26.476Z,6.65
2022-08-28T06:00:53.297Z,5.85
2022-08-28T06:03:20.094Z,5.88
2022-08-28T06:05:46.894Z,6.45
2022-08-28T06:08:13.854Z,6.45
2022-08-28T06:10:46.897Z,7.28
2022-08-28T06:13:17.736Z,6.50
2022-08-28T06:15:47.417Z,6.10
2022-08-28T06:18:15.982Z,6.38
2022-08-28T06:20:45.439Z,6.15
2022-08-28T06:23:16.450Z,6.18
2022-08-28T06:25:51.820Z,6.38
2022-08-28T06:28:21.800Z,7.18
2022-08-28T06:31:18.008Z,6.88
2022-08-28T06:33:37.816Z,5.80
2022-08-28T06:36:05.460Z,6.63
2022-08-28T06:38:32.241Z,6.40
2022-08-28T06:41:00.078Z,6.63
2022-08-28T06:43:28.953Z,6.68
2022-08-28T06:45:57.602Z,7.03
2022-08-28T06:48:27.474Z,7.03
2022-08-28T06:50:56.014Z,6.55
2022-08-28T06:53:26.468Z,6.47
2022-08-28T06:56:26.414Z,6.85
2022-08-28T06:58:56.906Z,7.05
2022-08-28T07:01:29.668Z,7.10
2022-08-28T07:04:04.033Z,7.35
2022-08-28T07:06:36.886Z,6.70
2022-08-28T07:09:06.164Z,6.82
2022-08-28T07:11:35.332Z,6.93
2022-08-28T07:14:03.057Z,7.50
2022-08-28T07:16:32.608Z,6.90
2022-08-28T07:19:00.167Z,6.28
2022-08-28T07:21:27.068Z,6.72
2022-08-28T07:23:55.091Z,6.63
2022-08-28T07:26:24.101Z,6.45
2022-08-28T07:28:53.340Z,6.60
2022-08-28T07:31:42.009Z,5.32
2022-08-28T07:34:10.284Z,6.40
2022-08-28T07:36:37.954Z,6.00
2022-08-28T07:39:06.317Z,6.07
2022-08-28T07:41:35.624Z,6.18
2022-08-28T07:44:21.291Z,4.93
2022-08-28T07:46:48.099Z,5.68
2022-08-28T07:49:18.457Z,4.68
2022-08-28T07:51:45.748Z,4.35
2022-08-28T07:54:17.736Z,5.03
2022-08-28T07:56:45.594Z,4.55
2022-08-28T07:59:16.875Z,4.07
2022-08-28T08:01:46.670Z,3.50
2022-08-28T08:04:16.332Z,3.30
2022-08-28T08:06:44.421Z,2.97
2022-08-28T08:09:14.853Z,3.10
2022-08-28T08:11:42.488Z,2.80
2022-08-28T08:14:10.161Z,2.90
2022-08-28T08:16:40.201Z,2.50
2022-08-28T08:19:10.189Z,2.40
2022-08-28T08:21:37.748Z,2.35
2022-08-28T08:24:04.913Z,2.45
2022-08-28T08:26:32.584Z,3.20
2022-08-28T08:28:59.677Z,3.05
2022-08-28T08:31:29.834Z,2.92
2022-08-28T08:34:02.071Z,2.85
2022-08-28T08:36:30.366Z,2.78
2022-08-28T08:39:00.395Z,2.65
2022-08-28T08:42:00.983Z,2.63
2022-08-28T08:44:36.895Z,2.35
2022-08-28T08:47:09.560Z,2.80
2022-08-28T08:49:43.411Z,2.50
2022-08-28T08:52:42.688Z,2.80
2022-08-28T08:55:32.061Z,2.53
2022-08-28T08:58:11.392Z,2.80
2022-08-28T09:00:53.793Z,2.42
2022-08-28T09:03:24.935Z,2.90
2022-08-28T09:06:00.405Z,2.30
2022-08-28T09:08:55.299Z,2.20
2022-08-28T09:11:36.742Z,2.90
2022-08-28T09:14:20.647Z,2.88
2022-08-28T09:16:55.913Z,2.55
2022-08-28T09:19:23.002Z,2.60
2022-08-28T09:21:51.422Z,2.72
2022-08-28T09:24:28.375Z,2.90
2022-08-28T09:26:59.681Z,2.70
2022-08-28T09:29:54.334Z,3.15
2022-08-28T09:32:38.704Z,3.05
2022-08-28T09:35:06.416Z,2.75
2022-08-28T09:37:35.648Z,3.03
2022-08-28T09:40:23.476Z,2.65
2022-08-28T09:43:16.813Z,2.42
2022-08-28T09:45:44.062Z,2.95
2022-08-28T09:48:32.635Z,2.28
2022-08-28T09:51:04.951Z,2.35
2022-08-28T09:53:54.027Z,2.47
2022-08-28T09:56:37.080Z,2.53
2022-08-28T09:59:14.274Z,3.10
2022-08-28T10:01:41.066Z,3.17
2022-08-28T10:04:18.097Z,3.13
2022-08-28T10:07:00.884Z,2.83
2022-08-28T10:09:47.757Z,2.95
2022-08-28T10:12:18.084Z,5.63
2022-08-28T10:14:57.196Z,5.28
2022-08-28T10:17:51.857Z,5.05
2022-08-28T10:20:31.820Z,4.68
2022-08-28T10:23:17.525Z,4.97
2022-08-28T10:25:52.147Z,5.03
2022-08-28T10:28:39.352Z,5.57
2022-08-28T10:31:31.504Z,4.10
2022-08-28T10:34:13.886Z,4.03
2022-08-28T10:36:43.054Z,4.38
2022-08-28T10:39:37.338Z,5.07
2022-08-28T10:42:06.411Z,3.33
2022-08-28T10:44:44.048Z,3.97
2022-08-28T10:47:13.653Z,3.70
2022-08-28T10:49:44.646Z,3.13
2022-08-28T10:55:09.941Z,3.60
2022-08-28T10:57:45.126Z,3.53
2022-08-28T11:00:18.708Z,3.42
2022-08-28T11:02:57.610Z,4.00
2022-08-28T11:05:40.791Z,3.90
2022-08-28T11:08:20.234Z,3.30
2022-08-28T11:10:53.034Z,3.08
2022-08-28T11:13:45.079Z,4.05
2022-08-28T11:16:38.068Z,3.70
2022-08-28T11:19:25.879Z,3.20
2022-08-28T11:22:02.824Z,3.50
2022-08-28T11:24:43.645Z,3.72
2022-08-28T11:27:29.491Z,4.05
2022-08-28T11:30:11.558Z,4.18
2022-08-28T11:32:51.986Z,3.78
2022-08-28T11:35:30.974Z,4.10
2022-08-28T11:37:58.647Z,3.72
2022-08-28T11:40:28.246Z,3.58
2022-08-28T11:43:19.134Z,3.75
2022-08-28T11:45:47.021Z,3.60
2022-08-28T11:48:26.057Z,3.17
2022-08-28T11:50:58.555Z,3.53
2022-08-28T11:53:34.283Z,3.83
2022-08-28T11:56:15.994Z,3.33
2022-08-28T11:59:10.278Z,3.42
2022-08-28T12:01:37.856Z,3.10
2022-08-28T12:04:14.803Z,3.10
2022-08-28T12:06:54.432Z,3.45
2022-08-28T12:09:41.766Z,3.73
2022-08-28T12:12:15.785Z,3.30
2022-08-28T12:14:42.533Z,3.63
2022-08-28T12:17:30.591Z,3.65
2022-08-28T12:20:58.649Z,3.58
2022-08-28T12:23:37.308Z,3.72
2022-08-28T12:26:11.375Z,3.95
2022-08-28T12:28:48.411Z,3.90
2022-08-28T12:32:02.684Z,3.20
2022-08-28T12:34:33.805Z,3.85
2022-08-28T12:37:03.229Z,3.63
2022-08-28T12:39:32.990Z,3.38
2022-08-28T12:42:01.919Z,3.28
2022-08-28T12:44:32.203Z,3.13
2022-08-28T12:46:59.900Z,3.28
2022-08-28T12:49:37.573Z,3.08
2022-08-28T12:52:16.725Z,3.17
2022-08-28T12:54:46.569Z,2.90
2022-08-28T12:57:16.717Z,2.55
2022-08-28T12:59:47.345Z,3.00
2022-08-28T13:02:26.941Z,2.50
2022-08-28T13:05:07.902Z,2.72
2022-08-28T13:07:36.977Z,3.05
2022-08-28T13:10:21.241Z,2.88
2022-08-28T13:12:58.800Z,3.28
2022-08-28T13:16:07.747Z,3.13
2022-08-28T13:18:50.392Z,3.08
2022-08-28T13:21:32.679Z,3.35
2022-08-28T13:24:23.364Z,3.13
2022-08-28T13:27:19.172Z,3.55
2022-08-28T13:30:00.885Z,3.17
2022-08-28T13:32:31.257Z,3.35
2022-08-28T13:35:38.748Z,3.33
2022-08-28T13:38:11.943Z,3.65
2022-08-28T13:40:57.471Z,3.63
2022-08-28T13:43:27.749Z,3.67
2022-08-28T13:45:54.662Z,4.35
2022-08-28T13:48:26.752Z,3.80
2022-08-28T13:51:10.285Z,3.60
2022-08-28T13:53:38.564Z,4.03
2022-08-28T13:56:05.603Z,4.10
2022-08-28T13:58:33.869Z,3.95
2022-08-28T14:01:01.121Z,3.78
2022-08-28T14:03:39.858Z,3.90
2022-08-28T14:06:13.418Z,3.83
2022-08-28T14:08:41.656Z,4.63
2022-08-28T14:11:12.617Z,5.07
2022-08-28T14:16:16.781Z,4.68
2022-08-28T14:18:43.795Z,4.28
2022-08-28T14:21:10.580Z,5.25
2022-08-28T14:23:37.423Z,5.20
2022-08-28T14:26:05.787Z,5.47
2022-08-28T14:28:35.325Z,5.72
2022-08-28T14:31:05.815Z,6.15
2022-08-28T14:33:36.857Z,7.20
2022-08-28T14:36:04.038Z,7.65
2022-08-28T14:38:31.466Z,10.25
2022-08-28T14:41:03.142Z,10.70
2022-08-28T14:43:30.236Z,11.10
2022-08-28T14:46:00.393Z,11.88
2022-08-28T14:48:27.497Z,12.95
2022-08-28T14:50:54.399Z,16.08
2022-08-28T14:53:24.284Z,17.27
2022-08-28T14:55:51.072Z,18.05
2022-08-28T14:58:20.020Z,17.13
2022-08-28T15:00:49.883Z,17.92
2022-08-28T15:03:19.408Z,18.40
2022-08-28T15:05:46.625Z,18.67
2022-08-28T15:08:16.874Z,19.52
2022-08-28T15:10:44.894Z,18.15
2022-08-28T15:13:12.998Z,18.00
2022-08-28T15:15:42.634Z,17.73
2022-08-28T15:18:11.217Z,17.60
2022-08-28T15:20:44.352Z,17.02
2022-08-28T15:23:13.833Z,16.50
2022-08-28T15:25:41.310Z,16.35
2022-08-28T15:28:08.573Z,16.90
2022-08-28T15:30:36.738Z,16.33
2022-08-28T15:33:03.740Z,16.33
2022-08-28T15:35:30.582Z,15.13
2022-08-28T15:37:57.467Z,16.67
2022-08-28T15:40:43.089Z,17.67
2022-08-28T15:43:09.963Z,18.88
2022-08-28T15:45:38.507Z,18.27
2022-08-28T15:48:07.422Z,19.05
2022-08-28T15:50:34.503Z,19.58
2022-08-28T15:53:01.825Z,19.35
2022-08-28T15:55:29.255Z,18.63
2022-08-28T15:57:56.333Z,19.63
2022-08-28T16:00:23.210Z,20.23
2022-08-28T16:02:50.028Z,20.52
2022-08-28T16:05:17.474Z,20.25
2022-08-28T16:07:44.811Z,19.88
2022-08-28T16:10:13.861Z,20.02
2022-08-28T16:12:41.090Z,19.63
2022-08-28T16:15:09.114Z,19.63
2022-08-28T16:17:36.174Z,19.88
2022-08-28T16:20:13.043Z,20.48
2022-08-28T16:22:41.284Z,21.27
2022-08-28T16:25:09.795Z,21.63
2022-08-28T16:27:36.690Z,19.95
2022-08-28T16:30:05.239Z,20.13
2022-08-28T16:32:32.228Z,19.38
2022-08-28T16:34:59.097Z,19.02
2022-08-28T16:37:37.731Z,19.20
2022-08-28T16:40:09.011Z,18.85
2022-08-28T16:42:36.339Z,20.15
2022-08-28T16:45:04.342Z,20.17
2022-08-28T16:47:33.216Z,20.33
2022-08-28T16:50:02.445Z,20.48
2022-08-28T16:52:29.316Z,20.70
2022-08-28T16:54:56.155Z,19.73
2022-08-28T16:57:23.792Z,20.98
2022-08-28T16:59:53.530Z,21.15
2022-08-28T17:02:26.656Z,23.55
2022-08-28T17:04:55.244Z,24.05
2022-08-28T17:07:22.116Z,24.73
2022-08-28T17:09:48.912Z,24.48
2022-08-28T17:12:16.750Z,26.13
2022-08-28T17:14:44.052Z,26.63
2022-08-28T17:17:11.461Z,25.75
2022-08-28T17:19:38.501Z,26.42
2022-08-28T17:22:24.069Z,26.20
2022-08-28T17:24:54.816Z,25.25
2022-08-28T17:27:22.397Z,25.33
2022-08-28T17:29:51.176Z,25.63
2022-08-28T17:32:18.174Z,25.83
2022-08-28T17:34:45.302Z,25.25
2022-08-28T17:37:12.206Z,25.45
2022-08-28T17:39:39.152Z,25.42
2022-08-28T17:42:06.258Z,25.65
2022-08-28T17:44:33.378Z,26.17
2022-08-28T17:47:01.069Z,25.85
2022-08-28T17:49:27.978Z,26.23
2022-08-28T17:51:54.797Z,25.50
2022-08-28T17:54:22.672Z,27.48
2022-08-28T17:56:50.164Z,26.13
2022-08-28T17:59:17.794Z,25.48
2022-08-28T18:01:46.517Z,25.50
2022-08-28T18:04:19.006Z,25.45
2022-08-28T18:06:52.769Z,25.90
2022-08-28T18:09:20.244Z,26.65
2022-08-28T18:11:47.561Z,26.55
2022-08-28T18:14:14.391Z,26.45
2022-08-28T18:16:41.330Z,24.98
2022-08-28T18:19:10.165Z,24.90
2022-08-28T18:21:38.554Z,25.25
2022-08-28T18:24:06.268Z,24.33
2022-08-28T18:26:33.249Z,24.40
2022-08-28T18:29:00.234Z,24.50
2022-08-28T18:31:27.239Z,24.77
2022-08-28T18:33:54.530Z,24.23
2022-08-28T18:36:23.328Z,24.00
2022-08-28T18:38:50.949Z,25.10
2022-08-28T18:41:20.101Z,24.08
2022-08-28T18:43:47.685Z,24.90
2022-08-28T18:46:14.735Z,26.05
2022-08-28T18:48:42.227Z,25.58
2022-08-28T18:51:10.996Z,25.40
2022-08-28T18:53:38.838Z,24.80
2022-08-28T18:56:09.215Z,25.45
2022-08-28T18:58:39.467Z,23.92
2022-08-28T19:01:08.314Z,24.95
2022-08-28T19:03:36.112Z,23.58
2022-08-28T19:06:03.003Z,24.17
2022-08-28T19:08:30.470Z,24.90
2022-08-28T19:10:57.482Z,21.98
2022-08-28T19:13:24.383Z,22.55
2022-08-28T19:15:53.081Z,21.15
2022-08-28T19:18:20.389Z,22.20
2022-08-28T19:20:48.203Z,21.25
2022-08-28T19:23:17.895Z,22.85
2022-08-28T19:25:45.789Z,21.70
2022-08-28T19:28:12.818Z,22.38
2022-08-28T19:30:40.037Z,22.67
2022-08-28T19:33:06.952Z,22.30
2022-08-28T19:35:34.014Z,22.55
2022-08-28T19:38:01.498Z,21.98
2022-08-28T19:40:29.197Z,21.08
2022-08-28T19:42:56.282Z,20.45
2022-08-28T19:45:23.374Z,21.67
2022-08-28T19:47:50.416Z,23.55
2022-08-28T19:50:17.509Z,24.23
2022-08-28T19:52:46.110Z,23.60
2022-08-28T19:55:19.364Z,22.48
2022-08-28T19:57:49.549Z,22.45
2022-08-28T20:00:23.345Z,22.80
2022-08-28T20:02:52.459Z,23.85
2022-08-28T20:05:20.875Z,24.67
2022-08-28T20:07:48.447Z,25.67
2022-08-28T20:10:16.445Z,25.20
2022-08-28T20:12:45.085Z,26.33
2022-08-28T20:15:16.240Z,26.23
2022-08-28T20:17:44.113Z,27.63
2022-08-28T20:20:21.466Z,26.13
2022-08-28T20:22:48.985Z,25.98
2022-08-28T20:25:21.516Z,24.90
2022-08-28T20:27:48.339Z,25.75
2022-08-28T20:30:15.186Z,25.33
2022-08-28T20:32:42.015Z,25.65
2022-08-28T20:35:11.951Z,24.88
2022-08-28T20:37:44.726Z,26.13
2022-08-28T20:40:18.014Z,25.73
2022-08-28T20:42:45.761Z,26.27
2022-08-28T20:45:15.213Z,25.30
2022-08-28T20:47:42.172Z,27.45
2022-08-28T20:50:09.874Z,25.98
2022-08-28T20:52:36.966Z,25.75
2022-08-28T20:55:05.098Z,26.20
2022-08-28T20:57:31.862Z,26.17
2022-08-28T21:00:02.267Z,27.38
2022-08-28T21:02:33.280Z,26.17
2022-08-28T21:05:00.405Z,27.80
2022-08-28T21:07:27.987Z,27.50
2022-08-28T21:10:05.478Z,25.67
2022-08-28T21:12:35.912Z,25.85
2022-08-28T21:15:03.738Z,25.58
2022-08-28T21:17:31.059Z,26.83
2022-08-28T21:20:04.581Z,28.50
2022-08-28T21:22:32.977Z,27.42
2022-08-28T21:25:02.500Z,25.85
2022-08-28T21:27:29.761Z,27.50
2022-08-28T21:30:00.463Z,26.08
2022-08-28T21:32:28.893Z,27.75
2022-08-28T21:34:56.038Z,28.20
2022-08-28T21:37:23.466Z,27.77
2022-08-28T21:39:50.814Z,27.27
2022-08-28T21:42:17.851Z,27.30
2022-08-28T21:44:46.083Z,26.48
2022-08-28T21:47:21.457Z,26.13
2022-08-28T21:49:50.178Z,25.83
2022-08-28T21:52:18.446Z,25.75
2022-08-28T21:54:45.350Z,24.38
2022-08-28T21:57:12.164Z,25.60
2022-08-28T21:59:39.078Z,25.50
2022-08-28T22:02:06.781Z,23.45
2022-08-28T22:04:33.869Z,24.02
2022-08-28T22:07:00.730Z,25.27
2022-08-28T22:09:27.564Z,25.17
2022-08-28T22:11:54.407Z,26.17
2022-08-28T22:14:21.186Z,26.55
2022-08-28T22:16:48.103Z,26.70
2022-08-28T22:19:14.980Z,28.10
2022-08-28T22:22:16.990Z,26.88
2022-08-28T22:24:43.763Z,28.83
2022-08-28T22:27:13.460Z,38.45
2022-08-28T22:29:40.628Z,48.08
2022-08-28T22:32:08.229Z,49.47
2022-08-28T22:34:38.978Z,48.47
2022-08-28T22:37:06.203Z,49.33
2022-08-28T22:39:33.078Z,43.88
2022-08-28T22:42:00.054Z,36.78
2022-08-28T22:44:26.806Z,30.08
2022-08-28T22:46:53.605Z,30.95
2022-08-28T22:49:20.489Z,36.08
2022-08-28T22:51:47.436Z,32.92
2022-08-28T22:54:14.213Z,29.40
2022-08-28T22:56:42.078Z,28.63
2022-08-28T22:59:09.691Z,32.70
2022-08-28T23:01:37.848Z,28.88
2022-08-28T23:04:05.248Z,29.00
2022-08-28T23:06:32.434Z,27.77
2022-08-28T23:08:59.215Z,28.33
2022-08-28T23:11:26.200Z,28.25
2022-08-28T23:13:52.964Z,27.30
2022-08-28T23:16:23.960Z,27.88
2022-08-28T23:19:07.433Z,25.98
2022-08-28T23:21:39.256Z,24.60
2022-08-28T23:24:16.032Z,25.40
2022-08-28T23:26:44.538Z,26.25
2022-08-28T23:29:12.377Z,25.45
2022-08-28T23:31:39.403Z,24.70
2022-08-28T23:34:06.861Z,23.25
2022-08-28T23:36:35.839Z,23.90
2022-08-28T23:39:04.899Z,23.02
2022-08-28T23:41:32.692Z,23.05
2022-08-28T23:43:59.702Z,22.42
2022-08-28T23:46:26.611Z,22.63
2022-08-28T23:48:53.398Z,20.85
2022-08-28T23:51:21.703Z,18.90
2022-08-28T23:53:49.069Z,20.42
2022-08-28T23:56:16.809Z,19.73
2022-08-28T23:58:44.454Z,20.27
